createdAt,value
2019-05-25T00:00:53.850Z,6.75
2019-05-25T00:02:07.661Z,6.30
2019-05-25T00:03:20.969Z,6.28
2019-05-25T00:04:34.791Z,6.78
2019-05-25T00:05:48.034Z,6.92
2019-05-25T00:07:01.840Z,6.33
2019-05-25T00:08:15.310Z,6.40
2019-05-25T00:09:29.390Z,5.97
2019-05-25T00:10:43.809Z,6.58
2019-05-25T00:11:58.209Z,6.30
2019-05-25T00:13:11.519Z,6.70
2019-05-25T00:14:25.125Z,6.17
2019-05-25T00:15:38.380Z,5.92
2019-05-25T00:16:52.978Z,6.60
2019-05-25T00:18:06.206Z,6.50
2019-05-25T00:19:22.369Z,6.70
2019-05-25T00:20:35.663Z,6.10
2019-05-25T00:21:49.599Z,6.10
2019-05-25T00:23:02.830Z,6.30
2019-05-25T00:24:16.635Z,6.00
2019-05-25T00:25:29.867Z,6.25
2019-05-25T00:26:43.682Z,5.92
2019-05-25T00:27:56.986Z,5.10
2019-05-25T00:29:11.043Z,5.20
2019-05-25T00:30:24.279Z,4.97
2019-05-25T00:31:38.160Z,4.83
2019-05-25T00:32:51.398Z,5.80
2019-05-25T00:34:05.207Z,4.90
2019-05-25T00:35:19.790Z,5.45
2019-05-25T00:36:33.613Z,5.33
2019-05-25T00:37:47.154Z,5.42
2019-05-25T00:39:00.981Z,5.72
2019-05-25T00:40:14.213Z,5.12
2019-05-25T00:41:28.026Z,5.72
2019-05-25T00:42:41.503Z,4.83
2019-05-25T00:43:55.315Z,5.15
2019-05-25T00:45:08.556Z,5.60
2019-05-25T00:46:22.441Z,5.37
2019-05-25T00:47:35.681Z,5.10
2019-05-25T00:48:49.501Z,5.47
2019-05-25T00:50:03.015Z,4.97
2019-05-25T00:51:16.833Z,5.15
2019-05-25T00:52:30.771Z,5.15
2019-05-25T00:53:44.582Z,4.30
2019-05-25T00:54:57.810Z,4.72
2019-05-25T00:56:11.630Z,4.75
2019-05-25T00:57:24.859Z,5.12
2019-05-25T00:58:38.689Z,4.80
2019-05-25T00:59:52.642Z,4.37
2019-05-25T01:01:06.616Z,4.12
2019-05-25T01:02:19.927Z,5.17
2019-05-25T01:03:33.729Z,5.42
2019-05-25T01:04:46.974Z,4.60
2019-05-25T01:06:01.259Z,5.28
2019-05-25T01:07:14.486Z,5.10
2019-05-25T01:08:28.383Z,4.67
2019-05-25T01:09:42.861Z,5.20
2019-05-25T01:10:56.695Z,5.08
2019-05-25T01:12:09.920Z,5.47
2019-05-25T01:13:24.765Z,4.92
2019-05-25T01:14:37.990Z,4.87
2019-05-25T01:15:51.809Z,4.28
2019-05-25T01:17:05.044Z,4.85
2019-05-25T01:18:18.893Z,4.83
2019-05-25T01:19:32.442Z,4.75
2019-05-25T01:20:46.262Z,5.05
2019-05-25T01:21:59.570Z,4.72
2019-05-25T01:23:13.390Z,4.60
2019-05-25T01:24:26.619Z,4.20
2019-05-25T01:25:40.434Z,5.47
2019-05-25T01:26:53.681Z,4.50
2019-05-25T01:28:07.551Z,4.47
2019-05-25T01:29:20.785Z,5.00
2019-05-25T01:30:34.598Z,4.40
2019-05-25T01:31:47.833Z,4.35
2019-05-25T01:33:01.651Z,4.03
2019-05-25T01:34:14.878Z,4.20
2019-05-25T01:35:28.782Z,4.55
2019-05-25T01:36:42.015Z,3.77
2019-05-25T01:37:55.826Z,4.47
2019-05-25T01:39:09.311Z,4.83
2019-05-25T01:40:23.135Z,4.70
2019-05-25T01:41:36.367Z,5.33
2019-05-25T01:42:50.181Z,5.10
2019-05-25T01:44:03.417Z,5.33
2019-05-25T01:45:17.234Z,4.70
2019-05-25T01:46:30.476Z,5.65
2019-05-25T01:47:44.542Z,5.78
2019-05-25T01:48:57.767Z,5.12
2019-05-25T01:50:12.047Z,4.53
2019-05-25T01:51:26.254Z,4.67
2019-05-25T01:52:40.068Z,4.50
2019-05-25T01:53:53.294Z,4.60
2019-05-25T01:55:07.383Z,4.75
2019-05-25T01:56:21.374Z,4.37
2019-05-25T01:57:35.208Z,4.35
2019-05-25T01:58:48.441Z,4.08
2019-05-25T02:00:03.225Z,4.37
2019-05-25T02:01:16.468Z,3.83
2019-05-25T02:02:30.279Z,4.40
2019-05-25T02:03:43.535Z,4.33
2019-05-25T02:04:57.351Z,4.55
2019-05-25T02:06:10.579Z,4.70
2019-05-25T02:07:24.537Z,4.40
2019-05-25T02:08:37.772Z,5.20
2019-05-25T02:09:51.676Z,4.70
2019-05-25T02:11:04.910Z,4.65
2019-05-25T02:12:18.721Z,4.37
2019-05-25T02:13:31.955Z,4.17
2019-05-25T02:14:46.015Z,4.45
2019-05-25T02:15:59.256Z,4.42
2019-05-25T02:17:13.565Z,4.28
2019-05-25T02:18:26.831Z,4.37
2019-05-25T02:19:40.655Z,4.60
2019-05-25T02:20:53.879Z,4.28
2019-05-25T02:22:08.743Z,4.65
2019-05-25T02:23:21.969Z,4.25
2019-05-25T02:24:37.367Z,4.25
2019-05-25T02:25:50.601Z,4.30
2019-05-25T02:27:04.761Z,4.78
2019-05-25T02:28:18.262Z,4.62
2019-05-25T02:29:32.186Z,4.20
2019-05-25T02:30:45.452Z,4.17
2019-05-25T02:31:59.257Z,4.20
2019-05-25T02:33:12.492Z,4.03
2019-05-25T02:34:26.323Z,4.65
2019-05-25T02:35:39.558Z,5.08
2019-05-25T02:36:53.396Z,4.62
2019-05-25T02:38:06.635Z,4.87
2019-05-25T02:39:20.451Z,4.17
2019-05-25T02:40:33.683Z,4.60
2019-05-25T02:41:47.505Z,4.92
2019-05-25T02:43:00.746Z,4.30
2019-05-25T02:44:14.638Z,4.50
2019-05-25T02:45:27.882Z,4.67
2019-05-25T02:46:41.691Z,4.87
2019-05-25T02:47:55.172Z,5.03
2019-05-25T02:49:09.011Z,4.85
2019-05-25T02:50:22.237Z,4.50
2019-05-25T02:51:36.055Z,4.75
2019-05-25T02:52:49.287Z,5.05
2019-05-25T02:54:15.386Z,5.17
2019-05-25T02:55:34.157Z,4.53
2019-05-25T02:56:44.572Z,4.53
2019-05-25T02:57:57.798Z,5.15
2019-05-25T02:59:11.608Z,4.50
2019-05-25T03:00:33.124Z,4.97
2019-05-25T03:01:47.383Z,5.03
2019-05-25T03:03:00.787Z,4.40
2019-05-25T03:04:14.589Z,4.33
2019-05-25T03:05:27.827Z,5.10
2019-05-25T03:06:42.241Z,5.00
2019-05-25T03:07:56.347Z,4.40
2019-05-25T03:09:10.627Z,4.70
2019-05-25T03:10:23.850Z,4.58
2019-05-25T03:11:37.931Z,4.65
2019-05-25T03:12:51.376Z,4.62
2019-05-25T03:14:05.258Z,4.47
2019-05-25T03:15:18.490Z,4.58
2019-05-25T03:16:32.327Z,4.65
2019-05-25T03:17:45.560Z,4.80
2019-05-25T03:18:59.382Z,5.08
2019-05-25T03:20:13.082Z,4.97
2019-05-25T03:21:27.138Z,4.80
2019-05-25T03:22:40.389Z,4.55
2019-05-25T03:23:54.198Z,5.12
2019-05-25T03:25:07.505Z,4.95
2019-05-25T03:26:21.324Z,5.17
2019-05-25T03:27:34.559Z,5.28
2019-05-25T03:28:48.566Z,4.60
2019-05-25T03:30:01.923Z,4.90
2019-05-25T03:31:15.826Z,5.10
2019-05-25T03:32:29.699Z,4.40
2019-05-25T03:33:43.522Z,4.83
2019-05-25T03:34:57.318Z,5.17
2019-05-25T03:36:11.139Z,5.45
2019-05-25T03:37:24.672Z,5.28
2019-05-25T03:38:38.523Z,5.08
2019-05-25T03:39:52.218Z,5.33
2019-05-25T03:41:06.041Z,5.28
2019-05-25T03:42:19.535Z,5.33
2019-05-25T03:43:33.358Z,5.45
2019-05-25T03:44:46.582Z,4.83
2019-05-25T03:46:00.394Z,4.95
2019-05-25T03:47:13.625Z,5.37
2019-05-25T03:48:27.472Z,5.55
2019-05-25T03:49:40.824Z,4.80
2019-05-25T03:50:54.744Z,4.90
2019-05-25T03:52:08.014Z,4.55
2019-05-25T03:53:22.031Z,5.05
2019-05-25T03:54:35.262Z,4.50
2019-05-25T03:56:02.947Z,5.08
2019-05-25T03:57:04.045Z,5.35
2019-05-25T03:58:17.847Z,4.97
2019-05-25T03:59:31.084Z,4.87
2019-05-25T04:00:44.893Z,5.37
2019-05-25T04:01:58.338Z,5.60
2019-05-25T04:03:12.159Z,5.42
2019-05-25T04:04:25.461Z,5.28
2019-05-25T04:05:39.301Z,5.90
2019-05-25T04:06:52.743Z,5.37
2019-05-25T04:08:06.548Z,5.30
2019-05-25T04:09:19.775Z,5.97
2019-05-25T04:10:33.586Z,5.58
2019-05-25T04:11:47.063Z,5.30
2019-05-25T04:13:00.874Z,4.95
2019-05-25T04:14:14.347Z,5.30
2019-05-25T04:15:28.158Z,5.78
2019-05-25T04:16:41.671Z,5.50
2019-05-25T04:17:55.486Z,5.50
2019-05-25T04:19:08.791Z,6.42
2019-05-25T04:20:22.351Z,5.33
2019-05-25T04:21:37.206Z,5.60
2019-05-25T04:22:51.042Z,5.70
2019-05-25T04:24:05.022Z,5.47
2019-05-25T04:25:18.845Z,5.78
2019-05-25T04:26:32.143Z,5.40
2019-05-25T04:27:45.962Z,5.47
2019-05-25T04:28:59.206Z,5.62
2019-05-25T04:30:13.131Z,5.33
2019-05-25T04:31:26.362Z,5.92
2019-05-25T04:32:40.181Z,4.75
2019-05-25T04:33:53.614Z,5.45
2019-05-25T04:35:07.425Z,5.67
2019-05-25T04:36:20.655Z,4.55
2019-05-25T04:37:34.474Z,5.87
2019-05-25T04:38:47.739Z,6.37
2019-05-25T04:40:01.611Z,5.70
2019-05-25T04:41:15.822Z,5.17
2019-05-25T04:42:29.840Z,5.10
2019-05-25T04:43:43.101Z,4.90
2019-05-25T04:44:58.520Z,5.30
2019-05-25T04:46:11.744Z,5.12
2019-05-25T04:47:27.161Z,5.37
2019-05-25T04:48:40.719Z,4.92
2019-05-25T04:49:54.535Z,5.30
2019-05-25T04:51:08.488Z,5.50
2019-05-25T04:52:22.310Z,5.25
2019-05-25T04:53:35.538Z,5.22
2019-05-25T04:54:50.059Z,4.90
2019-05-25T04:56:03.280Z,5.17
2019-05-25T04:57:17.660Z,5.42
2019-05-25T04:58:30.889Z,5.95
2019-05-25T04:59:44.908Z,5.80
2019-05-25T05:00:58.146Z,5.50
2019-05-25T05:02:12.415Z,5.62
2019-05-25T05:03:25.650Z,5.60
2019-05-25T05:04:39.922Z,4.72
2019-05-25T05:05:53.158Z,5.55
2019-05-25T05:07:08.607Z,5.90
2019-05-25T05:08:21.842Z,5.75
2019-05-25T05:09:35.658Z,5.92
2019-05-25T05:10:48.875Z,5.90
2019-05-25T05:12:03.622Z,5.85
2019-05-25T05:13:17.104Z,6.35
2019-05-25T05:14:30.942Z,5.58
2019-05-25T05:15:44.250Z,6.33
2019-05-25T05:16:58.063Z,6.40
2019-05-25T05:18:11.537Z,6.17
2019-05-25T05:19:25.413Z,5.60
2019-05-25T05:20:38.718Z,6.00
2019-05-25T05:21:52.587Z,6.33
2019-05-25T05:23:06.300Z,6.25
2019-05-25T05:24:21.234Z,5.80
2019-05-25T05:25:34.465Z,5.28
2019-05-25T05:26:55.606Z,5.92
2019-05-25T05:28:03.692Z,5.55
2019-05-25T05:29:17.511Z,6.53
2019-05-25T05:30:34.150Z,5.45
2019-05-25T05:31:47.964Z,6.45
2019-05-25T05:33:02.506Z,6.28
2019-05-25T05:34:16.317Z,6.50
2019-05-25T05:35:29.932Z,6.72
2019-05-25T05:36:43.742Z,6.55
2019-05-25T05:37:57.456Z,6.78
2019-05-25T05:39:11.263Z,6.22
2019-05-25T05:40:24.496Z,6.72
2019-05-25T05:41:38.987Z,7.58
2019-05-25T05:42:52.239Z,7.60
2019-05-25T05:44:06.068Z,6.95
2019-05-25T05:45:19.764Z,7.12
2019-05-25T05:46:33.745Z,6.65
2019-05-25T05:47:47.551Z,6.60
2019-05-25T05:49:01.866Z,6.70
2019-05-25T05:50:15.091Z,7.10
2019-05-25T05:51:28.902Z,6.70
2019-05-25T05:52:42.858Z,7.42
2019-05-25T05:53:58.528Z,7.87
2019-05-25T05:55:11.898Z,6.90
2019-05-25T05:56:25.708Z,7.85
2019-05-25T05:57:39.492Z,7.83
2019-05-25T05:58:53.079Z,8.75
2019-05-25T06:00:09.990Z,7.95
2019-05-25T06:01:23.817Z,7.70
2019-05-25T06:02:37.052Z,7.00
2019-05-25T06:03:50.861Z,6.40
2019-05-25T06:05:04.731Z,8.38
2019-05-25T06:06:18.751Z,7.40
2019-05-25T06:07:32.003Z,7.42
2019-05-25T06:08:45.810Z,7.83
2019-05-25T06:09:59.055Z,7.30
2019-05-25T06:11:12.867Z,7.75
2019-05-25T06:12:26.102Z,7.03
2019-05-25T06:13:40.142Z,7.22
2019-05-25T06:14:53.394Z,7.85
2019-05-25T06:16:07.479Z,8.15
2019-05-25T06:17:20.702Z,6.80
2019-05-25T06:18:34.714Z,8.25
2019-05-25T06:19:47.941Z,7.60
2019-05-25T06:21:03.382Z,7.42
2019-05-25T06:22:16.606Z,7.87
2019-05-25T06:23:30.428Z,7.62
2019-05-25T06:24:43.913Z,8.23
2019-05-25T06:25:57.743Z,7.80
2019-05-25T06:27:26.059Z,7.70
2019-05-25T06:28:26.517Z,7.35
2019-05-25T06:29:41.370Z,6.78
2019-05-25T06:30:55.207Z,7.25
2019-05-25T06:32:08.911Z,7.08
2019-05-25T06:33:23.511Z,7.50
2019-05-25T06:34:37.206Z,7.35
2019-05-25T06:35:51.021Z,7.60
2019-05-25T06:37:04.258Z,7.60
2019-05-25T06:38:18.078Z,7.87
2019-05-25T06:39:31.352Z,8.23
2019-05-25T06:40:45.219Z,8.05
2019-05-25T06:41:58.923Z,7.97
2019-05-25T06:43:14.946Z,7.30
2019-05-25T06:44:28.166Z,6.97
2019-05-25T06:45:41.979Z,7.97
2019-05-25T06:46:55.674Z,7.85
2019-05-25T06:48:09.976Z,7.55
2019-05-25T06:49:23.464Z,6.97
2019-05-25T06:50:37.279Z,7.90
2019-05-25T06:51:50.512Z,7.58
2019-05-25T06:53:04.347Z,7.35
2019-05-25T06:54:17.642Z,7.22
2019-05-25T06:55:31.695Z,7.50
2019-05-25T06:56:44.928Z,7.00
2019-05-25T06:57:58.743Z,7.75
2019-05-25T06:59:11.987Z,7.33
2019-05-25T07:00:25.801Z,8.03
2019-05-25T07:01:40.394Z,8.43
2019-05-25T07:02:54.774Z,7.20
2019-05-25T07:04:08.007Z,7.40
2019-05-25T07:05:21.837Z,7.17
2019-05-25T07:06:35.072Z,7.25
2019-05-25T07:07:48.889Z,7.75
2019-05-25T07:09:02.123Z,7.35
2019-05-25T07:10:16.143Z,7.72
2019-05-25T07:11:29.387Z,7.25
2019-05-25T07:12:43.200Z,8.43
2019-05-25T07:13:56.710Z,7.12
2019-05-25T07:15:11.199Z,7.53
2019-05-25T07:16:24.417Z,7.37
2019-05-25T07:17:38.232Z,7.22
2019-05-25T07:18:51.475Z,8.20
2019-05-25T07:20:08.674Z,7.22
2019-05-25T07:21:23.752Z,7.47
2019-05-25T07:22:38.513Z,8.03
2019-05-25T07:23:51.790Z,7.35
2019-05-25T07:25:07.230Z,7.78
2019-05-25T07:26:20.554Z,8.05
2019-05-25T07:27:34.438Z,7.42
2019-05-25T07:28:47.678Z,8.15
2019-05-25T07:30:02.168Z,7.53
2019-05-25T07:31:15.391Z,8.25
2019-05-25T07:32:29.210Z,7.83
2019-05-25T07:33:42.603Z,7.92
2019-05-25T07:34:56.429Z,10.38
2019-05-25T07:36:09.715Z,8.15
2019-05-25T07:37:23.648Z,7.85
2019-05-25T07:38:38.509Z,11.33
2019-05-25T07:39:52.380Z,8.00
2019-05-25T07:41:05.864Z,8.80
2019-05-25T07:42:20.201Z,7.75
2019-05-25T07:43:33.497Z,7.55
2019-05-25T07:44:48.205Z,6.90
2019-05-25T07:46:01.471Z,6.95
2019-05-25T07:47:15.124Z,7.87
2019-05-25T07:48:29.903Z,6.58
2019-05-25T07:49:43.720Z,7.60
2019-05-25T07:50:56.954Z,7.40
2019-05-25T07:52:11.312Z,7.35
2019-05-25T07:53:24.537Z,7.72
2019-05-25T07:54:38.474Z,6.92
2019-05-25T07:55:51.773Z,7.20
2019-05-25T07:57:05.578Z,7.95
2019-05-25T07:58:18.825Z,7.65
2019-05-25T07:59:32.778Z,7.60
2019-05-25T08:00:46.234Z,7.47
2019-05-25T08:02:00.052Z,7.53
2019-05-25T08:03:13.285Z,7.28
2019-05-25T08:04:27.125Z,8.13
2019-05-25T08:05:40.826Z,8.30
2019-05-25T08:06:54.715Z,8.08
2019-05-25T08:08:07.979Z,8.38
2019-05-25T08:09:21.570Z,7.83
2019-05-25T08:10:34.799Z,7.83
2019-05-25T08:11:48.636Z,7.72
2019-05-25T08:13:01.879Z,8.58
2019-05-25T08:14:15.710Z,7.50
2019-05-25T08:15:28.944Z,7.70
2019-05-25T08:16:43.229Z,7.08
2019-05-25T08:17:56.453Z,7.62
2019-05-25T08:19:10.384Z,7.12
2019-05-25T08:20:23.590Z,6.33
2019-05-25T08:21:37.470Z,6.35
2019-05-25T08:22:50.727Z,7.55
2019-05-25T08:24:04.527Z,7.10
2019-05-25T08:25:17.977Z,6.12
2019-05-25T08:26:31.975Z,6.55
2019-05-25T08:27:45.203Z,6.30
2019-05-25T08:28:59.231Z,6.42
2019-05-25T08:30:14.099Z,6.28
2019-05-25T08:31:27.931Z,6.05
2019-05-25T08:32:53.821Z,9.05
2019-05-25T08:34:13.195Z,9.05
2019-05-25T08:35:26.941Z,6.58
2019-05-25T08:36:40.767Z,8.03
2019-05-25T08:37:54.907Z,7.33
2019-05-25T08:39:08.738Z,6.92
2019-05-25T08:40:21.975Z,6.85
2019-05-25T08:41:35.784Z,5.75
2019-05-25T08:42:51.776Z,6.67
2019-05-25T08:44:05.684Z,6.75
2019-05-25T08:45:19.122Z,5.65
2019-05-25T08:46:33.140Z,5.83
2019-05-25T08:47:46.379Z,6.10
2019-05-25T08:49:00.612Z,5.87
2019-05-25T08:50:15.698Z,5.12
2019-05-25T08:51:29.586Z,5.53
2019-05-25T08:52:45.190Z,4.95
2019-05-25T08:54:00.546Z,5.05
2019-05-25T08:55:13.791Z,5.50
2019-05-25T08:56:27.634Z,5.17
2019-05-25T08:57:41.293Z,5.45
2019-05-25T08:58:55.737Z,4.50
2019-05-25T09:00:09.062Z,4.55
2019-05-25T09:01:22.882Z,4.62
2019-05-25T09:02:37.954Z,4.40
2019-05-25T09:03:52.276Z,4.50
2019-05-25T09:05:08.543Z,4.92
2019-05-25T09:06:23.390Z,5.00
2019-05-25T09:07:36.652Z,4.87
2019-05-25T09:08:52.222Z,4.85
2019-05-25T09:10:06.494Z,4.78
2019-05-25T09:11:20.305Z,5.12
2019-05-25T09:12:33.537Z,4.42
2019-05-25T09:13:47.506Z,4.40
2019-05-25T09:15:01.131Z,4.70
2019-05-25T09:16:16.165Z,5.40
2019-05-25T09:17:29.616Z,5.70
2019-05-25T09:18:43.431Z,5.45
2019-05-25T09:19:56.810Z,4.97
2019-05-25T09:21:10.872Z,5.10
2019-05-25T09:22:24.171Z,5.35
2019-05-25T09:23:37.988Z,5.05
2019-05-25T09:24:51.235Z,5.00
2019-05-25T09:26:05.131Z,5.17
2019-05-25T09:27:18.402Z,4.30
2019-05-25T09:28:32.214Z,4.87
2019-05-25T09:29:45.448Z,4.87
2019-05-25T09:30:59.276Z,3.87
2019-05-25T09:32:12.798Z,4.17
2019-05-25T09:33:28.394Z,4.28
2019-05-25T09:34:41.645Z,3.90
2019-05-25T09:35:55.575Z,3.95
2019-05-25T09:37:08.818Z,3.70
2019-05-25T09:38:22.634Z,4.55
2019-05-25T09:39:35.875Z,4.10
2019-05-25T09:40:49.687Z,4.70
2019-05-25T09:42:03.119Z,4.62
2019-05-25T09:43:16.935Z,5.60
2019-05-25T09:44:32.109Z,5.45
2019-05-25T09:45:49.027Z,4.80
2019-05-25T09:47:02.299Z,5.70
2019-05-25T09:48:16.186Z,6.50
2019-05-25T09:49:29.941Z,6.12
2019-05-25T09:50:44.996Z,7.75
2019-05-25T09:51:58.226Z,9.65
2019-05-25T09:53:13.158Z,16.57
2019-05-25T09:54:31.394Z,5.78
2019-05-25T09:55:45.311Z,5.47
2019-05-25T09:56:58.531Z,4.85
2019-05-25T09:58:12.342Z,4.58
2019-05-25T09:59:25.575Z,5.60
2019-05-25T10:00:40.285Z,5.33
2019-05-25T10:01:53.829Z,5.40
2019-05-25T10:03:07.734Z,5.78
2019-05-25T10:04:23.973Z,4.75
2019-05-25T10:05:40.695Z,5.30
2019-05-25T10:06:53.941Z,6.33
2019-05-25T10:08:07.738Z,6.67
2019-05-25T10:09:20.994Z,5.95
2019-05-25T10:10:34.816Z,6.08
2019-05-25T10:11:49.677Z,5.67
2019-05-25T10:13:05.607Z,8.98
2019-05-25T10:14:24.874Z,5.92
2019-05-25T10:15:38.774Z,5.25
2019-05-25T10:16:54.649Z,5.37
2019-05-25T10:18:07.892Z,6.35
2019-05-25T10:19:23.331Z,6.30
2019-05-25T10:20:37.384Z,7.30
2019-05-25T10:21:50.630Z,6.47
2019-05-25T10:23:04.460Z,7.33
2019-05-25T10:24:17.706Z,7.30
2019-05-25T10:25:31.503Z,5.97
2019-05-25T10:26:44.942Z,5.42
2019-05-25T10:27:58.776Z,5.95
2019-05-25T10:29:12.648Z,5.47
2019-05-25T10:30:26.478Z,5.53
2019-05-25T10:31:39.702Z,6.17
2019-05-25T10:32:53.519Z,5.47
2019-05-25T10:34:06.744Z,5.97
2019-05-25T10:35:20.578Z,4.65
2019-05-25T10:36:33.924Z,5.60
2019-05-25T10:37:48.762Z,8.08
2019-05-25T10:39:05.498Z,9.25
2019-05-25T10:40:19.310Z,9.15
2019-05-25T10:41:32.555Z,6.55
2019-05-25T10:42:46.366Z,5.85
2019-05-25T10:43:59.604Z,5.53
2019-05-25T10:45:13.492Z,6.17
2019-05-25T10:46:26.730Z,5.45
2019-05-25T10:47:41.644Z,4.58
2019-05-25T10:48:54.880Z,5.55
2019-05-25T10:50:11.359Z,4.28
2019-05-25T10:51:24.584Z,4.58
2019-05-25T10:52:38.409Z,4.42
2019-05-25T10:53:51.663Z,5.05
2019-05-25T10:55:08.566Z,4.40
2019-05-25T10:56:21.787Z,4.45
2019-05-25T10:57:36.187Z,3.95
2019-05-25T10:58:49.727Z,4.70
2019-05-25T11:00:05.652Z,4.20
2019-05-25T11:01:18.896Z,5.00
2019-05-25T11:02:33.972Z,4.40
2019-05-25T11:03:47.319Z,4.40
2019-05-25T11:05:01.161Z,4.12
2019-05-25T11:06:14.416Z,4.28
2019-05-25T11:07:28.237Z,4.35
2019-05-25T11:08:42.517Z,4.17
2019-05-25T11:09:56.388Z,3.92
2019-05-25T11:11:09.783Z,4.22
2019-05-25T11:12:26.138Z,4.35
2019-05-25T11:13:39.103Z,4.20
2019-05-25T11:14:54.538Z,3.70
2019-05-25T11:16:11.159Z,4.10
2019-05-25T11:17:25.092Z,4.30
2019-05-25T11:18:38.317Z,8.60
2019-05-25T11:19:52.294Z,7.42
2019-05-25T11:21:05.541Z,4.08
2019-05-25T11:22:19.606Z,4.10
2019-05-25T11:23:34.237Z,3.62
2019-05-25T11:24:50.098Z,13.28
2019-05-25T11:26:07.334Z,5.95
2019-05-25T11:27:35.441Z,5.60
2019-05-25T11:28:53.440Z,4.60
2019-05-25T11:30:10.033Z,4.03
2019-05-25T11:31:42.585Z,4.15
2019-05-25T11:32:40.879Z,3.27
2019-05-25T11:33:59.883Z,3.55
2019-05-25T11:35:13.728Z,3.70
2019-05-25T11:36:26.958Z,3.02
2019-05-25T11:37:40.867Z,3.27
2019-05-25T11:38:54.095Z,3.67
2019-05-25T11:40:08.171Z,3.37
2019-05-25T11:41:21.398Z,3.45
2019-05-25T11:42:35.687Z,3.87
2019-05-25T11:43:49.950Z,3.35
2019-05-25T11:45:07.256Z,3.42
2019-05-25T11:46:20.486Z,3.85
2019-05-25T11:47:34.295Z,3.80
2019-05-25T11:48:47.526Z,4.05
2019-05-25T11:50:01.336Z,3.45
2019-05-25T11:51:14.575Z,3.15
2019-05-25T11:52:29.457Z,4.33
2019-05-25T11:53:44.340Z,4.28
2019-05-25T11:54:58.148Z,3.75
2019-05-25T11:56:11.450Z,4.10
2019-05-25T11:57:25.264Z,4.03
2019-05-25T11:58:47.117Z,4.17
2019-05-25T11:59:54.047Z,4.05
2019-05-25T12:01:07.269Z,3.60
2019-05-25T12:02:22.364Z,3.60
2019-05-25T12:03:35.599Z,3.85
2019-05-25T12:04:49.404Z,3.67
2019-05-25T12:06:02.646Z,4.95
2019-05-25T12:07:16.929Z,3.83
2019-05-25T12:08:30.158Z,3.90
2019-05-25T12:09:44.005Z,3.55
2019-05-25T12:10:57.316Z,3.62
2019-05-25T12:12:12.771Z,3.22
2019-05-25T12:13:26.004Z,3.25
2019-05-25T12:14:40.274Z,3.02
2019-05-25T12:15:53.507Z,3.05
2019-05-25T12:17:08.983Z,3.02
2019-05-25T12:18:22.274Z,2.60
2019-05-25T12:19:36.091Z,2.62
2019-05-25T12:20:49.318Z,3.02
2019-05-25T12:22:03.703Z,3.25
2019-05-25T12:23:16.935Z,3.60
2019-05-25T12:24:30.800Z,2.83
2019-05-25T12:25:44.087Z,2.60
2019-05-25T12:26:59.282Z,2.77
2019-05-25T12:28:12.510Z,2.90
2019-05-25T12:29:26.340Z,4.03
2019-05-25T12:30:41.136Z,2.90
2019-05-25T12:32:03.756Z,2.80
2019-05-25T12:33:10.066Z,2.98
2019-05-25T12:34:23.887Z,2.70
2019-05-25T12:35:37.127Z,2.75
2019-05-25T12:36:50.986Z,2.80
2019-05-25T12:38:04.202Z,3.00
2019-05-25T12:39:18.024Z,2.90
2019-05-25T12:40:31.607Z,3.60
2019-05-25T12:41:45.442Z,2.92
2019-05-25T12:42:58.690Z,3.17
2019-05-25T12:44:12.503Z,3.27
2019-05-25T12:45:26.318Z,3.40
2019-05-25T12:46:40.162Z,3.08
2019-05-25T12:47:53.935Z,3.22
2019-05-25T12:49:09.238Z,3.00
2019-05-25T12:50:22.478Z,2.58
2019-05-25T12:51:36.271Z,3.08
2019-05-25T12:52:49.547Z,3.12
2019-05-25T12:54:03.406Z,3.12
2019-05-25T12:55:17.177Z,2.80
2019-05-25T12:56:30.992Z,2.92
2019-05-25T12:57:44.939Z,2.62
2019-05-25T12:58:58.968Z,3.37
2019-05-25T13:00:15.953Z,2.45
2019-05-25T13:01:28.515Z,3.15
2019-05-25T13:02:42.002Z,2.70
2019-05-25T13:03:56.134Z,3.12
2019-05-25T13:05:10.012Z,2.80
2019-05-25T13:06:24.083Z,2.80
2019-05-25T13:07:37.330Z,3.27
2019-05-25T13:08:51.136Z,2.80
2019-05-25T13:10:06.563Z,3.05
2019-05-25T13:11:20.598Z,2.33
2019-05-25T13:12:33.838Z,3.55
2019-05-25T13:13:47.400Z,2.72
2019-05-25T13:15:02.044Z,2.85
2019-05-25T13:16:15.892Z,3.22
2019-05-25T13:17:29.234Z,3.10
2019-05-25T13:18:43.107Z,3.35
2019-05-25T13:19:56.338Z,3.42
2019-05-25T13:21:10.210Z,3.45
2019-05-25T13:22:23.472Z,3.65
2019-05-25T13:23:37.299Z,4.60
2019-05-25T13:24:50.782Z,3.50
2019-05-25T13:26:04.630Z,4.28
2019-05-25T13:27:18.057Z,6.12
2019-05-25T13:28:32.063Z,5.85
2019-05-25T13:29:45.355Z,7.20
2019-05-25T13:31:11.281Z,6.30
2019-05-25T13:32:14.144Z,4.78
2019-05-25T13:33:28.177Z,4.53
2019-05-25T13:34:41.435Z,4.72
2019-05-25T13:35:55.431Z,3.98
2019-05-25T13:37:08.684Z,4.20
2019-05-25T13:38:22.507Z,4.20
2019-05-25T13:39:35.772Z,4.97
2019-05-25T13:40:49.590Z,3.77
2019-05-25T13:42:02.822Z,3.85
2019-05-25T13:43:16.635Z,3.80
2019-05-25T13:44:29.876Z,4.15
2019-05-25T13:45:46.119Z,4.47
2019-05-25T13:46:59.741Z,5.12
2019-05-25T13:48:14.618Z,4.45
2019-05-25T13:49:27.857Z,4.40
2019-05-25T13:50:41.762Z,4.70
2019-05-25T13:51:55.003Z,4.42
2019-05-25T13:53:08.816Z,3.72
2019-05-25T13:54:22.034Z,3.62
2019-05-25T13:55:35.910Z,3.70
2019-05-25T13:56:49.150Z,4.42
2019-05-25T13:58:02.974Z,3.60
2019-05-25T13:59:16.197Z,4.20
2019-05-25T14:00:30.015Z,3.95
2019-05-25T14:01:43.258Z,4.30
2019-05-25T14:02:56.818Z,4.05
2019-05-25T14:04:10.983Z,4.83
2019-05-25T14:05:24.798Z,3.67
2019-05-25T14:06:38.044Z,3.67
2019-05-25T14:07:52.056Z,4.33
2019-05-25T14:09:06.910Z,3.70
2019-05-25T14:10:21.193Z,3.85
2019-05-25T14:11:34.499Z,4.00
2019-05-25T14:12:48.330Z,4.10
2019-05-25T14:14:02.203Z,4.17
2019-05-25T14:15:16.050Z,3.98
2019-05-25T14:16:29.339Z,3.58
2019-05-25T14:17:43.374Z,4.03
2019-05-25T14:18:56.610Z,3.47
2019-05-25T14:20:10.506Z,3.95
2019-05-25T14:21:23.806Z,3.35
2019-05-25T14:22:37.821Z,3.87
2019-05-25T14:23:51.531Z,3.40
2019-05-25T14:25:07.143Z,3.90
2019-05-25T14:26:20.390Z,3.95
2019-05-25T14:27:34.275Z,3.90
2019-05-25T14:28:47.526Z,4.15
2019-05-25T14:30:01.342Z,4.30
2019-05-25T14:31:15.853Z,3.83
2019-05-25T14:32:29.732Z,4.28
2019-05-25T14:33:42.994Z,3.60
2019-05-25T14:34:56.817Z,4.03
2019-05-25T14:36:10.043Z,4.03
2019-05-25T14:37:23.871Z,3.98
2019-05-25T14:38:37.097Z,3.80
2019-05-25T14:39:50.911Z,3.98
2019-05-25T14:41:04.226Z,4.03
2019-05-25T14:42:18.138Z,4.67
2019-05-25T14:43:31.374Z,5.47
2019-05-25T14:44:45.234Z,5.62
2019-05-25T14:45:58.479Z,4.47
2019-05-25T14:47:12.290Z,4.05
2019-05-25T14:48:25.531Z,4.80
2019-05-25T14:49:39.356Z,5.03
2019-05-25T14:50:54.051Z,4.67
2019-05-25T14:52:07.895Z,4.80
2019-05-25T14:53:22.826Z,3.72
2019-05-25T14:54:36.890Z,4.40
2019-05-25T14:55:50.117Z,4.35
2019-05-25T14:57:05.071Z,3.55
2019-05-25T14:58:18.327Z,3.87
2019-05-25T14:59:32.221Z,3.62
2019-05-25T15:00:45.454Z,3.30
2019-05-25T15:02:02.747Z,3.30
2019-05-25T15:03:17.951Z,2.90
2019-05-25T15:04:31.806Z,3.40
2019-05-25T15:05:45.918Z,3.40
2019-05-25T15:06:59.769Z,3.42
2019-05-25T15:08:14.214Z,3.33
2019-05-25T15:09:28.042Z,3.20
2019-05-25T15:10:41.274Z,2.67
2019-05-25T15:11:55.086Z,2.87
2019-05-25T15:13:09.335Z,2.85
2019-05-25T15:14:23.267Z,3.27
2019-05-25T15:15:36.501Z,2.98
2019-05-25T15:16:50.395Z,3.02
2019-05-25T15:18:03.744Z,2.75
2019-05-25T15:19:18.441Z,2.83
2019-05-25T15:20:31.878Z,3.30
2019-05-25T15:21:45.849Z,2.67
2019-05-25T15:22:59.334Z,2.50
2019-05-25T15:24:14.401Z,3.52
2019-05-25T15:25:27.691Z,2.35
2019-05-25T15:26:41.495Z,3.52
2019-05-25T15:27:54.734Z,3.87
2019-05-25T15:29:11.290Z,3.72
2019-05-25T15:30:23.531Z,3.83
2019-05-25T15:31:37.344Z,4.37
2019-05-25T15:32:51.853Z,4.00
2019-05-25T15:34:05.662Z,3.75
2019-05-25T15:35:20.437Z,3.87
2019-05-25T15:36:34.655Z,4.97
2019-05-25T15:37:49.031Z,5.55
2019-05-25T15:39:02.861Z,3.80
2019-05-25T15:40:16.171Z,3.70
2019-05-25T15:41:29.999Z,3.37
2019-05-25T15:42:43.329Z,3.75
2019-05-25T15:43:57.147Z,4.10
2019-05-25T15:45:10.594Z,3.47
2019-05-25T15:46:25.130Z,3.80
2019-05-25T15:47:38.644Z,3.95
2019-05-25T15:48:52.467Z,3.83
2019-05-25T15:50:09.625Z,3.90
2019-05-25T15:51:23.439Z,4.17
2019-05-25T15:52:36.666Z,3.47
2019-05-25T15:53:50.702Z,3.80
2019-05-25T15:55:08.479Z,4.00
2019-05-25T15:56:22.294Z,3.40
2019-05-25T15:57:35.533Z,3.83
2019-05-25T15:58:49.825Z,3.55
2019-05-25T16:00:04.755Z,4.08
2019-05-25T16:01:18.575Z,4.00
2019-05-25T16:02:36.756Z,3.92
2019-05-25T16:03:47.425Z,3.70
2019-05-25T16:05:02.159Z,4.15
2019-05-25T16:06:16.011Z,3.55
2019-05-25T16:07:31.155Z,4.42
2019-05-25T16:08:46.655Z,3.87
2019-05-25T16:09:59.892Z,3.55
2019-05-25T16:11:13.784Z,3.35
2019-05-25T16:12:27.492Z,4.45
2019-05-25T16:13:41.297Z,3.92
2019-05-25T16:14:57.268Z,4.35
2019-05-25T16:16:11.071Z,3.55
2019-05-25T16:17:26.243Z,4.20
2019-05-25T16:18:41.471Z,3.50
2019-05-25T16:19:54.750Z,4.42
2019-05-25T16:21:08.562Z,4.12
2019-05-25T16:22:21.798Z,3.80
2019-05-25T16:23:35.644Z,3.67
2019-05-25T16:24:48.880Z,3.98